This demonstration page uses our WeatherBlox Daily Observations layout. Learn more.

36.17497, -115.13722

Hourly Observations for July 30, 2019

Temp ( °F °C ) Dew Point ( °F °C ) Humidity (%) Winds ( mph kmh ) Pressure ( in mb ) Visibility ( mi km ) Precip ( " mm )
12:53 am 00:53 Clear 93 33.9 27 -2.8 9 9 SSE 6 9 29.71 1006 10 16.09344 0 0
1:53 am 01:53 Clear 88 31.1 30 -1.1 12 12 N 5 7 29.74 1007 10 16.09344 0 0
2:53 am 02:53 Clear 87 30.6 28 -2.2 12 12 Calm 29.74 1007 10 16.09344 0 0
3:53 am 03:53 Clear 84 28.9 29 -1.7 13 13 N 3 6 29.74 1007 10 16.09344 0 0
4:53 am 04:53 Clear 83 28.3 32 0 16 16 NE 5 7 29.77 1008 10 16.09344 0 0
5:53 am 05:53 Sunny 84 28.9 33 0.6 16 16 Calm 29.8 1009 10 16.09344 0 0
6:53 am 06:53 Sunny 84 28.9 38 3.3 19 19 ESE 9 15 29.8 1009 10 16.09344 0 0
7:53 am 07:53 Sunny 91 32.8 37 2.8 15 15 SE 3 6 29.83 1010 10 16.09344 0 0
8:53 am 08:53 Sunny 94 34.4 43 6.1 17 17 SSE 8 13 29.85 1011 10 16.09344 0 0
9:53 am 09:53 Sunny 98 36.7 39 3.9 13 13 SSE 17 28 29.85 1011 10 16.09344 0 0
10:53 am 10:53 Sunny 100 37.8 45 7.2 15 15 SSE 17 28 29.83 1010 10 16.09344 0 0
11:53 am 11:53 Sunny 104 40 37 2.8 10 10 SSE 16 26 29.83 1010 10 16.09344 0 0
12:53 pm 12:53 Sunny 106 41.1 36 2.2 9 9 S 20 31 29.8 1009 10 16.09344 0 0
1:53 pm 13:53 Sunny 106 41.1 47 8.3 14 14 SE 17 28 29.8 1009 10 16.09344 0 0
2:53 pm 14:53 Sunny 107 41.7 46 7.8 13 13 S 23 37 29.77 1008 10 16.09344 0 0
3:53 pm 15:53 Sunny 107 41.7 47 8.3 13 13 SSE 25 41 29.74 1007 10 16.09344 0 0
4:53 pm 16:53 Sunny 105 40.6 47 8.3 14 14 SSE 21 33 29.71 1006 10 16.09344 0 0
5:53 pm 17:53 Sunny 103 39.4 48 8.9 16 16 SSE 16 26 29.71 1006 10 16.09344 0 0
6:53 pm 18:53 Sunny 102 38.9 50 10 17 17 SSE 20 31 29.74 1007 10 16.09344 0 0
7:53 pm 19:53 Clear 100 37.8 52 11.1 20 20 S 17 28 29.74 1007 10 16.09344 0 0
8:53 pm 20:53 Clear 99 37.2 50 10 19 19 S 15 24 29.77 1008 10 16.09344 0 0
9:53 pm 21:53 Clear 98 36.7 51 10.6 20 20 S 14 22 29.77 1008 10 16.09344 0 0
10:53 pm 22:53 Clear 97 36.1 52 11.1 22 22 S 13 20 29.8 1009 10 16.09344 0 0
11:53 pm 23:53 Clear 96 35.6 53 11.7 23 23 S 9 15 29.8 1009 10 16.09344 0 0

Powered by AerisWeather